Time;durP1;ratioP1;P1;durP2;ratioP2;P2;SDS_P1;SDS_P2;PMS_P1;PMS_P2;Temp;Humidity;BMP_temperature;BMP_pressure;BME280_temperature;BME280_humidity;BME280_pressure;Samples;Min_cycle;Max_cycle;Signal;HPM_P1;HPM_P2
2022/12/21 00:01:25;;;;;;;22.20;9.30;;;;;;;-3.15;62.95;100132.50;4855295;29;20034;-83
2022/12/21 00:03:53;;;;;;;19.52;10.00;;;;;;;-3.00;63.09;100157.03;4845638;29;20057;-79
2022/12/21 00:06:21;;;;;;;30.50;10.68;;;;;;;-3.06;62.11;100171.19;4845603;29;20583;-85
2022/12/21 00:08:48;;;;;;;21.25;10.05;;;;;;;-3.16;63.13;100194.41;4831430;29;20466;-82
2022/12/21 00:11:15;;;;;;;20.17;10.25;;;;;;;-3.16;63.33;100189.31;4845386;29;20068;-79
2022/12/21 00:13:42;;;;;;;20.75;9.52;;;;;;;-3.35;63.07;100167.09;4846183;29;20042;-80
2022/12/21 00:16:13;;;;;;;22.17;10.25;;;;;;;-3.15;63.08;100190.19;4854161;29;20573;-79
2022/12/21 00:18:40;;;;;;;21.08;10.60;;;;;;;-3.05;63.09;100190.75;4865989;29;20042;-81
2022/12/21 00:21:19;;;;;;;26.35;11.82;;;;;;;-3.31;63.28;100132.50;4865673;29;20132;-81
2022/12/21 00:23:48;;;;;;;24.70;11.73;;;;;;;-3.42;62.83;100131.94;4864527;29;20041;-80
2022/12/21 00:26:16;;;;;;;25.80;11.43;;;;;;;-3.45;62.85;100117.41;4864253;29;20433;-83
2022/12/21 00:28:43;;;;;;;17.25;9.68;;;;;;;-3.12;63.36;100180.19;4832438;29;20064;-82
2022/12/21 00:31:12;;;;;;;22.45;10.45;;;;;;;-2.97;63.12;100203.88;4855583;29;20106;-82
2022/12/21 00:33:40;;;;;;;19.60;9.93;;;;;;;-2.85;62.96;100198.56;4845057;29;20045;-81
2022/12/21 00:36:07;;;;;;;19.85;9.15;;;;;;;-2.91;63.08;100180.41;4845087;29;20214;-80
2022/12/21 00:38:34;;;;;;;20.88;10.07;;;;;;;-2.87;63.29;100177.22;4831958;29;20058;-80
2022/12/21 00:41:05;;;;;;;17.30;8.77;;;;;;;-2.79;62.95;100201.41;4821109;29;20050;-82
2022/12/21 00:43:34;;;;;;;20.58;9.38;;;;;;;-2.93;62.95;100169.25;4856855;29;20051;-82
2022/12/21 00:46:01;;;;;;;19.20;9.60;;;;;;;-3.13;63.27;100146.19;4860739;29;20042;-81
2022/12/21 00:48:29;;;;;;;18.80;8.40;;;;;;;-2.85;63.33;100179.81;4849910;29;20046;-78
2022/12/21 00:51:06;;;;;;;20.38;8.77;;;;;;;-2.69;63.47;100209.53;4853083;29;20046;-78
2022/12/21 00:53:33;;;;;;;19.73;8.77;;;;;;;-2.70;63.66;100195.03;4854260;29;20049;-80
2022/12/21 00:56:07;;;;;;;17.88;8.43;;;;;;;-2.84;63.27;100174.84;4851530;29;20054;-81
2022/12/21 00:58:42;;;;;;;21.13;8.13;;;;;;;-2.85;63.22;100155.25;4842078;29;20058;-80
2022/12/21 01:01:17;;;;;;;15.48;7.68;;;;;;;-2.63;63.37;100195.41;4846412;29;20082;-84
2022/12/21 01:03:43;;;;;;;17.63;8.18;;;;;;;-2.65;63.69;100189.41;4847325;29;20046;-79
2022/12/21 01:06:19;;;;;;;17.77;8.65;;;;;;;-2.57;63.59;100194.88;4827580;29;20064;-81
2022/12/21 01:08:45;;;;;;;17.85;8.60;;;;;;;-2.77;63.68;100156.53;4827389;29;20539;-83
2022/12/21 01:11:13;;;;;;;17.52;8.57;;;;;;;-2.56;63.50;100183.88;4827044;29;20399;-80
2022/12/21 01:13:40;;;;;;;17.10;7.95;;;;;;;-2.49;63.12;100196.09;4843654;29;20070;-80
2022/12/21 01:16:22;;;;;;;16.55;8.18;;;;;;;-2.84;62.69;100151.00;4835003;29;20053;-80
2022/12/21 01:18:48;;;;;;;17.20;8.38;;;;;;;-2.69;63.30;100194.22;4862488;29;20223;-80
2022/12/21 01:21:21;;;;;;;17.02;7.95;;;;;;;-2.64;63.00;100191.09;4845503;29;20045;-81
2022/12/21 01:23:48;;;;;;;18.02;8.30;;;;;;;-2.74;63.16;100197.41;4860649;29;20067;-81
2022/12/21 01:26:15;;;;;;;19.73;8.27;;;;;;;-2.76;63.27;100198.16;4830199;29;20041;-82
2022/12/21 01:28:42;;;;;;;18.48;7.90;;;;;;;-2.82;62.95;100201.25;4861509;29;20065;-78
2022/12/21 01:31:08;;;;;;;14.30;7.47;;;;;;;-2.75;62.83;100208.41;4837363;29;20048;-81
2022/12/21 01:33:37;;;;;;;17.88;8.05;;;;;;;-2.72;63.37;100202.59;4827475;29;20136;-82
2022/12/21 01:36:10;;;;;;;21.70;9.68;;;;;;;-2.62;63.60;100196.31;4842445;29;20041;-80
2022/12/21 01:38:39;;;;;;;;;;;;;;;-2.52;63.50;100212.94;4827410;29;20049;-80
2022/12/21 01:41:06;;;;;;;17.20;8.40;;;;;;;-2.73;63.14;100180.47;4842362;29;19920;-82
2022/12/21 01:43:53;;;;;;;18.08;8.18;;;;;;;-2.67;63.13;100201.19;4856679;29;20532;-81
2022/12/21 01:46:47;;;;;;;14.88;7.03;;;;;;;-2.61;63.23;100206.56;4860008;29;20037;-79
2022/12/21 01:49:22;;;;;;;16.70;7.70;;;;;;;-2.80;63.00;100192.03;4860230;29;20140;-80
2022/12/21 01:52:10;;;;;;;15.18;7.55;;;;;;;-2.90;62.71;100177.06;4841796;29;20049;-81
2022/12/21 01:54:42;;;;;;;14.52;7.22;;;;;;;-2.75;62.99;100227.91;4846023;29;20046;-81
2022/12/21 01:57:12;;;;;;;17.35;8.10;;;;;;;-2.74;63.13;100219.47;4864879;29;20110;-79
2022/12/21 01:59:55;;;;;;;19.73;8.63;;;;;;;-2.80;62.98;100197.13;4870208;29;20061;-79
2022/12/21 02:02:31;;;;;;;19.00;8.80;;;;;;;-2.74;63.15;100215.25;4845617;29;20573;-80
2022/12/21 02:05:05;;;;;;;21.90;9.32;;;;;;;-3.02;62.71;100164.56;4860497;29;20369;-83
2022/12/21 02:07:32;;;;;;;15.02;8.02;;;;;;;-2.66;63.38;100215.66;4860986;29;20069;-81
2022/12/21 02:09:59;;;;;;;20.23;8.82;;;;;;;-2.83;62.90;100224.09;4860853;29;20045;-79
2022/12/21 02:12:26;;;;;;;20.58;9.60;;;;;;;-2.88;63.17;100218.75;4851442;29;20056;-79
2022/12/21 02:14:54;;;;;;;18.95;8.88;;;;;;;-3.28;62.22;100148.81;4872542;29;20417;-79
2022/12/21 02:17:36;;;;;;;21.92;8.90;;;;;;;-3.00;62.44;100225.78;4864379;29;20050;-80
2022/12/21 02:20:05;;;;;;;15.82;8.70;;;;;;;-3.13;62.06;100225.13;4845450;29;20062;-81
2022/12/21 02:22:56;;;;;;;17.50;8.82;;;;;;;-3.12;62.63;100221.78;4844969;29;20131;-81
2022/12/21 02:25:34;;;;;;;21.42;8.82;;;;;;;-2.98;63.08;100219.09;4860258;29;20072;-81
2022/12/21 02:28:30;;;;;;;21.52;9.25;;;;;;;-2.77;63.67;100204.03;4861440;29;20054;-79
2022/12/21 02:31:11;;;;;;;20.90;9.18;;;;;;;-2.85;62.75;100201.09;4861970;29;20089;-78
2022/12/21 02:34:03;;;;;;;19.80;9.75;;;;;;;-3.12;63.35;100149.63;4860471;29;20127;-81
2022/12/21 02:36:45;;;;;;;20.88;8.93;;;;;;;-2.61;63.39;100205.69;4860484;29;20556;-81
2022/12/21 02:39:33;;;;;;;18.20;8.73;;;;;;;-2.79;62.70;100206.53;4861049;29;20140;-80
2022/12/21 02:42:06;;;;;;;18.70;8.68;;;;;;;-3.10;62.73;100198.97;4859867;29;20398;-80
2022/12/21 02:44:51;;;;;;;26.45;11.57;;;;;;;-3.28;63.51;100184.44;4860009;29;20045;-79
2022/12/21 02:47:37;;;;;;;18.08;9.50;;;;;;;-3.19;62.86;100190.03;4859796;29;20041;-82
2022/12/21 02:50:11;;;;;;;17.75;10.05;;;;;;;-3.31;63.54;100173.22;4860725;29;20454;-80
2022/12/21 02:52:55;;;;;;;21.90;10.02;;;;;;;-3.15;62.88;100185.97;4826370;29;20069;-83
2022/12/21 02:55:26;;;;;;;21.95;10.40;;;;;;;-3.12;63.15;100186.13;4826001;29;20066;-81
2022/12/21 02:58:23;;;;;;;17.88;9.57;;;;;;;-2.92;63.33;100184.63;4843046;29;20094;-79
2022/12/21 03:00:53;;;;;;;20.30;9.63;;;;;;;-2.98;63.15;100188.53;4833504;29;20148;-80
2022/12/21 03:03:51;;;;;;;21.52;10.23;;;;;;;-2.89;63.31;100183.91;4841146;29;20045;-78
2022/12/21 03:06:45;;;;;;;17.35;8.77;;;;;;;-2.96;63.15;100192.00;4840682;29;20128;-80
2022/12/21 03:09:17;;;;;;;21.60;9.98;;;;;;;-2.95;63.55;100179.38;4825392;29;20057;-80
2022/12/21 03:12:00;;;;;;;18.75;9.35;;;;;;;-3.10;63.11;100153.13;4831764;29;20057;-81
2022/12/21 03:14:48;;;;;;;20.10;10.05;;;;;;;-2.86;63.57;100176.41;4836536;29;20046;-81
2022/12/21 03:17:20;;;;;;;15.95;8.70;;;;;;;-2.82;63.30;100170.69;4810289;29;20050;-82
2022/12/21 03:20:05;;;;;;;;;;;;;;;-2.88;63.02;100168.72;4826106;29;20042;-79
2022/12/21 03:22:43;;;;;;;19.55;8.73;;;;;;;-3.22;62.97;100118.56;4841446;29;19989;-80
2022/12/21 03:25:18;;;;;;;18.10;8.18;;;;;;;-2.97;62.60;100172.44;4825685;29;20049;-83
2022/12/21 03:27:51;;;;;;;21.77;9.00;;;;;;;-2.98;62.46;100175.81;4842489;29;20050;-82
2022/12/21 03:30:19;;;;;;;19.08;9.57;;;;;;;-3.17;63.16;100136.63;4841311;29;20422;-81
2022/12/21 03:32:48;;;;;;;19.10;8.77;;;;;;;-2.89;63.23;100168.63;4842433;29;20042;-83
2022/12/21 03:35:26;;;;;;;21.13;9.60;;;;;;;-2.99;62.06;100166.41;4843042;29;20124;-82
2022/12/21 03:37:56;;;;;;;19.45;8.60;;;;;;;-3.37;62.05;100145.78;4844515;29;20046;-80
2022/12/21 03:40:54;;;;;;;16.75;8.65;;;;;;;-3.34;62.69;100149.34;4841802;29;20570;-82
2022/12/21 03:44:36;;;;;;;19.35;8.80;;;;;;;-3.04;63.18;100177.22;4731915;30;20060;-80
2022/12/21 03:47:18;;;;;;;17.65;9.07;;;;;;;-2.93;62.87;100157.41;4794262;29;20048;-81
2022/12/21 03:49:50;;;;;;;18.52;8.93;;;;;;;-2.93;63.03;100161.59;4840429;29;20098;-81
2022/12/21 03:52:22;;;;;;;21.30;10.20;;;;;;;-2.91;63.67;100160.03;4852043;29;20045;-80
2022/12/21 03:55:13;;;;;;;22.35;10.30;;;;;;;-2.63;63.37;100175.03;4843810;29;20041;-79
2022/12/21 03:57:40;;;;;;;18.90;10.05;;;;;;;-2.74;62.77;100143.06;4860477;29;20132;-83
2022/12/21 04:00:10;;;;;;;21.10;9.27;;;;;;;-2.62;63.24;100158.09;4858712;29;20049;-80
2022/12/21 04:02:44;;;;;;;19.25;9.25;;;;;;;-2.56;63.10;100163.50;4844489;29;20045;-80
2022/12/21 04:05:22;;;;;;;19.45;10.48;;;;;;;-2.35;63.22;100168.75;4860015;29;20041;-80
2022/12/21 04:07:52;;;;;;;19.55;10.05;;;;;;;-2.64;63.26;100139.28;4859929;29;20128;-78
2022/12/21 04:10:20;;;;;;;18.95;9.32;;;;;;;-2.41;63.05;100173.53;4858637;29;20041;-79
2022/12/21 04:12:46;;;;;;;19.60;9.55;;;;;;;-2.42;63.02;100167.59;4827767;29;20041;-81
2022/12/21 04:15:19;;;;;;;19.77;9.82;;;;;;;-2.48;63.22;100146.88;4858694;29;20116;-84
2022/12/21 04:17:48;;;;;;;21.75;9.75;;;;;;;-2.40;62.85;100165.09;4843307;29;20045;-81
2022/12/21 04:20:23;;;;;;;18.83;9.10;;;;;;;-3.05;63.09;100050.69;4859543;29;20041;-80
2022/12/21 04:28:30;;;;;;;27.23;10.52;;;;;;;-2.50;62.91;100173.97;4875015;29;20056;-81
2022/12/21 04:31:00;;;;;;;22.27;10.18;;;;;;;-3.31;63.19;100044.31;4858522;29;20041;-79
2022/12/21 04:33:28;;;;;;;20.42;9.80;;;;;;;-3.14;62.99;100060.41;4858860;29;20068;-79
2022/12/21 04:38:42;;;;;;;20.25;9.57;;;;;;;-2.80;63.88;100124.91;4849606;29;20044;-82
2022/12/21 04:41:09;;;;;;;21.77;9.82;;;;;;;-2.70;63.04;100144.06;4861888;29;20037;-82
2022/12/21 04:43:39;;;;;;;20.95;10.50;;;;;;;-3.16;62.59;100107.81;4848029;29;20045;-78
2022/12/21 04:46:07;;;;;;;23.85;10.25;;;;;;;-2.96;63.20;100152.16;4863323;29;20089;-81
2022/12/21 04:48:34;;;;;;;24.20;10.30;;;;;;;-3.24;63.64;100096.41;4846852;29;20041;-79
2022/12/21 04:51:24;;;;;;;23.00;9.88;;;;;;;-2.91;63.57;100158.38;4845620;29;20097;-81
2022/12/21 04:53:51;;;;;;;21.73;9.95;;;;;;;-2.82;64.27;100152.84;4827886;29;20046;-82
2022/12/21 04:56:18;;;;;;;18.40;9.43;;;;;;;-3.13;63.43;100112.22;4843106;29;20050;-79
2022/12/21 04:58:45;;;;;;;24.27;10.45;;;;;;;-3.29;62.89;100119.03;4813047;29;20058;-79
2022/12/21 05:01:14;;;;;;;22.63;11.43;;;;;;;-2.99;63.50;100172.38;4844131;29;20053;-80
2022/12/21 05:03:40;;;;;;;25.75;11.52;;;;;;;-3.08;63.50;100172.75;4813379;29;20057;-78
2022/12/21 05:06:07;;;;;;;20.90;10.45;;;;;;;-3.08;63.50;100185.50;4829572;29;20042;-79
2022/12/21 05:08:34;;;;;;;20.95;9.85;;;;;;;-3.14;63.94;100190.25;4848110;29;20094;-79
2022/12/21 05:11:15;;;;;;;21.95;10.27;;;;;;;-3.12;63.57;100191.22;4845044;29;20092;-80
2022/12/21 05:13:42;;;;;;;23.03;10.73;;;;;;;-3.01;64.51;100199.41;4843696;29;20049;-79
2022/12/21 05:16:11;;;;;;;19.42;9.88;;;;;;;-3.04;63.38;100194.16;4827981;29;20293;-78
2022/12/21 05:18:38;;;;;;;23.35;9.95;;;;;;;-2.96;63.69;100202.19;4813151;29;20117;-82
2022/12/21 05:21:04;;;;;;;25.90;11.13;;;;;;;-3.12;64.38;100153.03;4813402;29;20048;-79
2022/12/21 05:23:30;;;;;;;21.63;10.52;;;;;;;-2.65;65.01;100201.25;4844233;29;20046;-80
2022/12/21 05:25:56;;;;;;;25.73;11.23;;;;;;;-2.49;64.06;100205.44;4845238;29;20046;-81
2022/12/21 05:28:22;;;;;;;23.23;10.32;;;;;;;-2.58;64.46;100182.94;4844310;29;20070;-77
2022/12/21 05:30:48;;;;;;;21.10;9.60;;;;;;;-2.64;64.59;100174.97;4827775;29;20041;-79
2022/12/21 05:33:14;;;;;;;20.58;10.15;;;;;;;-2.45;64.16;100197.16;4842478;29;20042;-78
2022/12/21 05:35:41;;;;;;;20.13;9.98;;;;;;;-2.43;64.61;100173.47;4843409;29;20510;-81
2022/12/21 05:38:07;;;;;;;26.60;11.48;;;;;;;-2.27;64.67;100192.06;4844712;29;20241;-79
2022/12/21 05:40:34;;;;;;;20.65;10.13;;;;;;;-2.29;64.24;100161.41;4852073;29;20056;-80
2022/12/21 05:43:01;;;;;;;20.45;9.93;;;;;;;-2.20;64.16;100194.13;4838295;29;20518;-77
2022/12/21 05:45:27;;;;;;;21.98;10.07;;;;;;;-2.60;64.05;100151.38;4850849;29;20053;-79
2022/12/21 05:47:54;;;;;;;22.13;10.15;;;;;;;-2.51;64.43;100202.81;4832122;29;20105;-80
2022/12/21 05:50:21;;;;;;;21.67;9.50;;;;;;;-2.53;64.22;100196.75;4857364;29;20045;-80
2022/12/21 05:52:47;;;;;;;27.02;9.77;;;;;;;-2.54;64.51;100168.66;4862408;29;20123;-78
2022/12/21 05:55:13;;;;;;;20.10;9.82;;;;;;;-2.50;64.20;100178.22;4876132;29;20042;-79
2022/12/21 05:57:39;;;;;;;23.10;10.25;;;;;;;-2.65;63.78;100152.81;4869849;29;20533;-81
2022/12/21 06:00:06;;;;;;;22.92;9.55;;;;;;;-2.57;64.33;100159.19;4875881;29;20041;-80
2022/12/21 06:02:39;;;;;;;23.40;9.48;;;;;;;-2.17;64.31;100201.94;4880629;29;20045;-79
2022/12/21 06:05:05;;;;;;;21.52;9.38;;;;;;;-2.29;64.38;100179.25;4880864;29;20192;-79
2022/12/21 06:07:31;;;;;;;19.15;9.50;;;;;;;-2.43;64.78;100149.69;4866820;29;20051;-79
2022/12/21 06:09:57;;;;;;;19.55;9.27;;;;;;;-2.16;64.20;100221.53;4881922;29;20042;-80
2022/12/21 06:12:23;;;;;;;20.58;9.55;;;;;;;-2.45;64.14;100156.38;4881069;29;20026;-81
2022/12/21 06:14:49;;;;;;;23.95;9.07;;;;;;;-2.18;63.59;100201.84;4869251;29;20049;-80
2022/12/21 06:17:16;;;;;;;21.13;9.20;;;;;;;-2.66;63.38;100143.44;4845418;29;20425;-80
2022/12/21 06:19:42;;;;;;;21.10;9.52;;;;;;;-2.64;63.48;100155.44;4848401;29;20041;-78
2022/12/21 06:22:12;;;;;;;20.33;10.13;;;;;;;-2.61;63.61;100200.59;4862425;29;20065;-79
2022/12/21 06:24:38;;;;;;;25.67;10.60;;;;;;;-2.82;63.09;100216.53;4862031;29;20053;-85
2022/12/21 06:27:14;;;;;;;20.48;9.05;;;;;;;-3.73;63.92;100074.31;4860944;29;20037;-81
2022/12/21 06:29:40;;;;;;;22.10;10.07;;;;;;;-2.87;63.89;100190.81;4830321;29;20049;-80
2022/12/21 06:32:06;;;;;;;21.60;10.18;;;;;;;-2.89;64.14;100200.06;4845627;29;20042;-83
2022/12/21 06:34:32;;;;;;;21.55;10.10;;;;;;;-2.82;64.20;100196.16;4861080;29;20049;-80
2022/12/21 06:36:59;;;;;;;18.42;9.70;;;;;;;-2.83;63.86;100199.50;4860402;29;20045;-80
2022/12/21 06:39:25;;;;;;;20.58;9.73;;;;;;;-2.71;64.50;100214.56;4848134;29;20141;-79
2022/12/21 06:41:51;;;;;;;22.85;9.90;;;;;;;-2.78;64.03;100203.19;4867078;29;20038;-80
2022/12/21 06:44:17;;;;;;;20.73;9.57;;;;;;;-2.82;64.24;100192.72;4862741;29;20045;-81
2022/12/21 06:46:43;;;;;;;19.65;10.75;;;;;;;-2.66;64.80;100223.31;4844492;29;20045;-81
2022/12/21 06:49:11;;;;;;;19.73;9.60;;;;;;;-2.80;63.85;100193.69;4829580;29;20448;-83
2022/12/21 06:51:37;;;;;;;25.45;9.68;;;;;;;-2.77;64.07;100189.66;4859762;29;20041;-78
2022/12/21 06:54:04;;;;;;;24.98;10.50;;;;;;;-3.11;63.98;100157.31;4859697;29;20569;-81
2022/12/21 06:56:30;;;;;;;21.27;10.10;;;;;;;-3.08;64.46;100174.41;4844296;29;20129;-83
2022/12/21 06:58:57;;;;;;;20.85;9.82;;;;;;;-2.83;64.56;100190.97;4845208;29;20148;-81
2022/12/21 07:01:29;;;;;;;20.50;10.35;;;;;;;-2.65;64.11;100219.06;4861783;29;20034;-83
2022/12/21 07:03:59;;;;;;;23.52;10.05;;;;;;;-2.66;64.78;100223.31;4829594;29;20041;-81
2022/12/21 07:06:28;;;;;;;20.98;9.45;;;;;;;-2.60;63.67;100208.31;4862414;29;20045;-79
2022/12/21 07:08:56;;;;;;;19.38;9.88;;;;;;;-2.54;64.52;100217.06;4862916;29;20042;-80
2022/12/21 07:11:24;;;;;;;22.35;10.40;;;;;;;-2.51;64.61;100213.00;4853157;29;20053;-82
2022/12/21 07:13:52;;;;;;;19.02;9.65;;;;;;;-2.39;64.63;100199.13;4860179;29;20052;-83
2022/12/21 07:16:19;;;;;;;23.40;10.05;;;;;;;-2.57;64.65;100159.19;4844527;29;20065;-78
2022/12/21 07:18:45;;;;;;;24.20;10.57;;;;;;;-2.40;64.02;100179.53;4845618;29;20424;-84
2022/12/21 07:21:14;;;;;;;24.65;10.38;;;;;;;-2.45;64.43;100143.63;4863994;29;20080;-80
2022/12/21 07:23:41;;;;;;;22.30;9.55;;;;;;;-2.00;64.45;100206.97;4862159;29;20056;-82
2022/12/21 07:26:15;;;;;;;24.92;10.40;;;;;;;-2.43;63.99;100142.91;4847312;29;20042;-84
2022/12/21 07:28:43;;;;;;;22.38;10.23;;;;;;;-2.57;63.62;100161.75;4866519;29;20416;-81
2022/12/21 07:31:11;;;;;;;20.52;9.38;;;;;;;-2.18;64.40;100212.94;4862546;29;20056;-78
2022/12/21 07:33:41;;;;;;;25.25;10.00;;;;;;;-2.39;64.79;100163.44;4861600;29;20102;-80
2022/12/21 07:36:08;;;;;;;21.05;10.38;;;;;;;-1.96;64.44;100213.97;4870814;29;20047;-80
2022/12/21 07:38:40;;;;;;;21.90;10.48;;;;;;;-2.11;64.42;100180.97;4866590;29;20045;-82
2022/12/21 07:41:11;;;;;;;20.30;9.57;;;;;;;-2.74;64.08;100072.56;4859190;29;20045;-84
2022/12/21 07:43:37;;;;;;;19.50;9.10;;;;;;;-2.02;64.10;100227.31;4844016;29;20076;-82
2022/12/21 07:46:14;;;;;;;20.23;9.55;;;;;;;-2.57;64.09;100156.66;4844550;29;20049;-80
2022/12/21 07:48:41;;;;;;;22.15;10.13;;;;;;;-2.38;63.59;100194.09;4859762;29;20049;-82
2022/12/21 07:51:08;;;;;;;21.88;9.50;;;;;;;-2.00;64.85;100227.38;4844975;29;20061;-82
2022/12/21 07:53:34;;;;;;;20.52;10.60;;;;;;;-1.97;64.87;100230.94;4862950;29;20093;-81
2022/12/21 07:56:17;;;;;;;24.83;11.40;;;;;;;-2.24;64.82;100160.78;4847477;29;20144;-79
2022/12/21 07:58:43;;;;;;;25.13;10.45;;;;;;;-1.74;64.18;100230.31;4861211;29;20198;-84
2022/12/21 08:01:33;;;;;;;22.58;9.98;;;;;;;-1.91;64.42;100197.22;4838240;29;20483;-80
2022/12/21 08:04:00;;;;;;;21.85;10.35;;;;;;;-1.98;64.55;100157.78;4852065;29;20045;-80
2022/12/21 08:06:26;;;;;;;22.50;10.18;;;;;;;-2.38;64.21;100081.06;4849227;29;20053;-82
2022/12/21 08:08:57;;;;;;;22.10;10.13;;;;;;;-1.78;63.75;100195.25;4864646;29;20041;-84
2022/12/21 08:11:23;;;;;;;21.85;10.05;;;;;;;-2.16;64.66;100124.63;4864722;29;20071;-81
2022/12/21 08:13:49;;;;;;;19.30;9.50;;;;;;;-2.02;63.76;100180.53;4853114;29;20041;-81
2022/12/21 08:16:18;;;;;;;24.10;10.95;;;;;;;-1.89;64.44;100233.00;4861267;29;20133;-82
2022/12/21 08:18:44;;;;;;;24.83;10.43;;;;;;;-1.78;64.43;100231.88;4856791;29;20109;-81
2022/12/21 08:21:10;;;;;;;23.27;10.52;;;;;;;-1.89;64.08;100227.91;4864857;29;20033;-81
2022/12/21 08:23:37;;;;;;;23.15;10.88;;;;;;;-2.10;64.35;100202.25;4864797;29;20144;-83
2022/12/21 08:26:06;;;;;;;22.88;10.75;;;;;;;-1.74;65.32;100230.31;4866371;29;20425;-83
2022/12/21 08:28:35;;;;;;;24.63;10.93;;;;;;;-2.27;65.09;100135.97;4852867;29;20041;-80
2022/12/21 08:31:04;;;;;;;23.13;10.93;;;;;;;-2.18;65.08;100139.00;4851709;29;20053;-84
2022/12/21 08:33:31;;;;;;;24.67;11.10;;;;;;;-1.46;65.21;100196.75;4866099;29;20466;-80
2022/12/21 08:35:57;;;;;;;25.13;11.55;;;;;;;-1.39;65.09;100193.69;4865185;29;20069;-87
2022/12/21 08:38:24;;;;;;;24.55;10.25;;;;;;;-1.37;63.93;100230.38;4865077;29;20049;-81
2022/12/21 08:40:54;;;;;;;27.27;11.10;;;;;;;-2.30;64.02;100120.53;4855088;29;20042;-83
2022/12/21 08:43:20;;;;;;;28.42;12.13;;;;;;;-3.30;63.77;99979.84;4857844;29;20096;-81
2022/12/21 08:45:47;;;;;;;26.63;10.63;;;;;;;-2.22;64.54;100149.84;4844813;29;20051;-80
2022/12/21 08:48:13;;;;;;;22.05;10.68;;;;;;;-2.18;65.37;100146.63;4879456;29;20570;-81
2022/12/21 08:50:39;;;;;;;22.20;9.40;;;;;;;-1.84;63.62;100204.34;4882809;29;20067;-83
2022/12/21 08:53:06;;;;;;;25.52;10.82;;;;;;;-1.67;65.21;100223.03;4859386;29;20058;-83
2022/12/21 08:55:32;;;;;;;22.60;9.30;;;;;;;-2.15;64.52;100120.41;4822330;29;20082;-82
2022/12/21 08:58:01;;;;;;;18.15;8.82;;;;;;;-1.62;64.96;100210.47;4853459;29;20136;-83
2022/12/21 09:00:28;;;;;;;18.08;7.93;;;;;;;-1.68;64.29;100180.44;4841220;29;20057;-81
2022/12/21 09:02:55;;;;;;;16.80;7.13;;;;;;;-1.63;64.89;100182.34;4835973;29;20075;-83
2022/12/21 09:05:21;;;;;;;10.43;5.57;;;;;;;-2.11;64.82;100119.75;4835916;29;20052;-80
2022/12/21 09:07:55;;;;;;;11.15;6.03;;;;;;;-1.64;64.97;100189.09;4854235;29;20046;-79
2022/12/21 09:10:28;;;;;;;10.27;5.25;;;;;;;-2.97;65.26;99964.47;4854393;29;20075;-83
2022/12/21 09:12:56;;;;;;;10.02;5.00;;;;;;;-2.20;64.97;100094.69;4844440;29;20060;-82
2022/12/21 09:15:26;;;;;;;9.25;5.00;;;;;;;-1.48;64.84;100213.66;4828132;29;20664;-81
2022/12/21 09:17:52;;;;;;;10.85;5.10;;;;;;;-1.68;64.92;100159.16;4839511;29;20045;-81
2022/12/21 09:20:18;;;;;;;7.65;4.57;;;;;;;-2.05;65.00;100098.75;4835083;29;20155;-83
2022/12/21 09:22:46;;;;;;;8.85;5.20;;;;;;;-1.59;64.55;100164.69;4857228;29;20074;-83
2022/12/21 09:25:12;;;;;;;8.05;4.22;;;;;;;-1.37;64.98;100196.28;4848002;29;20037;-80
2022/12/21 09:27:39;;;;;;;10.07;5.55;;;;;;;-1.37;64.97;100197.19;4869278;29;20109;-84
2022/12/21 09:30:05;;;;;;;9.00;5.25;;;;;;;-1.63;64.23;100154.25;4868402;29;20113;-82
2022/12/21 09:32:33;;;;;;;10.00;5.07;;;;;;;-1.87;65.15;100109.81;4874620;29;20111;-79
2022/12/21 09:34:59;;;;;;;7.78;4.63;;;;;;;-1.42;64.70;100182.44;4853927;29;20053;-83
2022/12/21 09:37:25;;;;;;;10.98;5.13;;;;;;;-1.57;64.62;100152.84;4850434;29;20482;-81
2022/12/21 09:39:53;;;;;;;9.43;5.07;;;;;;;-1.61;64.95;100125.44;4838255;29;20041;-80
2022/12/21 09:42:24;;;;;;;8.75;4.63;;;;;;;-1.24;65.32;100182.41;4870853;29;20021;-83
2022/12/21 09:44:52;;;;;;;8.10;4.97;;;;;;;-1.26;65.16;100168.69;4872765;29;20069;-79
2022/12/21 09:47:26;;;;;;;8.77;5.03;;;;;;;-1.39;64.74;100152.84;4871017;29;20100;-81
2022/12/21 09:49:58;;;;;;;9.70;5.05;;;;;;;-1.18;64.83;100181.78;4869120;29;20041;-81
2022/12/21 09:52:36;;;;;;;8.93;5.07;;;;;;;-1.28;65.46;100144.75;4834483;29;20046;-83
2022/12/21 09:55:12;;;;;;;9.55;5.20;;;;;;;-0.97;64.75;100169.97;4850291;29;20057;-79
2022/12/21 09:57:38;;;;;;;8.95;4.72;;;;;;;-1.22;64.55;100122.06;4849838;29;20109;-80
2022/12/21 10:00:16;;;;;;;11.63;4.95;;;;;;;-1.18;64.30;100146.94;4839840;29;20066;-78
2022/12/21 10:03:08;;;;;;;8.57;4.72;;;;;;;-1.09;64.73;100156.66;4852752;29;20089;-82
2022/12/21 10:05:57;;;;;;;9.45;5.68;;;;;;;-1.00;64.59;100154.53;4820536;29;20037;-81
2022/12/21 10:08:50;;;;;;;10.60;5.13;;;;;;;-0.98;64.42;100158.00;4853746;29;20076;-79
2022/12/21 10:11:43;;;;;;;10.10;5.68;;;;;;;-0.91;64.92;100159.16;4836079;29;20489;-83
2022/12/21 10:14:15;;;;;;;9.95;5.60;;;;;;;-0.97;64.20;100126.53;4844670;29;20041;-82
2022/12/21 10:17:00;;;;;;;12.82;6.20;;;;;;;-0.73;64.34;100151.38;4870735;29;20049;-84
2022/12/21 10:19:42;;;;;;;10.63;5.72;;;;;;;-0.76;64.25;100144.47;4854164;29;20045;-81
2022/12/21 10:22:14;;;;;;;;;;;;;;;-0.84;64.23;100134.75;4870672;29;20109;-82
2022/12/21 10:24:47;;;;;;;9.20;5.13;;;;;;;-1.03;64.30;100105.84;4872292;29;19920;-82
2022/12/21 10:27:27;;;;;;;8.80;5.20;;;;;;;-0.97;63.23;100133.34;4867922;29;20045;-82
2022/12/21 10:30:03;;;;;;;10.30;5.20;;;;;;;-1.03;63.85;100117.75;4854035;29;20044;-78
2022/12/21 10:32:35;;;;;;;13.10;6.15;;;;;;;-1.18;64.61;100102.63;4871575;29;20049;-79
2022/12/21 10:35:24;;;;;;;10.52;5.00;;;;;;;-1.02;64.59;100112.72;5114503;24;20095;-79
2022/12/21 10:37:53;;;;;;;9.68;5.15;;;;;;;-1.15;64.52;100110.41;4867770;29;20104;-78
2022/12/21 10:40:25;;;;;;;10.95;5.63;;;;;;;-1.43;64.06;100083.66;4847232;29;20121;-82
2022/12/21 10:42:55;;;;;;;10.38;5.60;;;;;;;-1.34;64.64;100094.28;4876391;29;20060;-80
2022/12/21 10:45:23;;;;;;;11.25;6.03;;;;;;;-1.49;64.67;100063.00;4883922;29;20050;-79
2022/12/21 10:47:53;;;;;;;12.15;6.30;;;;;;;-1.22;65.32;100089.75;4885063;29;20049;-81
2022/12/21 10:50:34;;;;;;;11.77;5.78;;;;;;;-1.10;64.30;100086.81;4872198;29;20077;-79
2022/12/21 10:53:24;;;;;;;11.07;6.25;;;;;;;-1.16;65.14;100099.34;4861804;29;20073;-80
2022/12/21 10:55:57;;;;;;;13.23;6.47;;;;;;;-1.14;65.08;100112.16;4855772;29;20068;-77
2022/12/21 10:58:27;;;;;;;13.05;7.88;;;;;;;-1.06;65.16;100106.56;4855478;29;20070;-80
2022/12/21 11:01:01;;;;;;;10.32;5.95;;;;;;;-0.98;64.32;100099.22;4872944;29;20064;-79
2022/12/21 11:03:39;;;;;;;12.27;6.20;;;;;;;-1.07;65.41;100088.66;4869977;29;20106;-77
2022/12/21 11:06:17;;;;;;;11.07;5.90;;;;;;;-1.02;65.48;100084.63;4862328;29;20061;-82
2022/12/21 11:08:46;;;;;;;12.02;5.97;;;;;;;-1.01;65.23;100063.38;4863603;29;20062;-79
2022/12/21 11:11:33;;;;;;;11.25;6.05;;;;;;;-1.01;65.03;100068.47;4862469;29;20139;-80
2022/12/21 11:14:14;;;;;;;10.98;5.95;;;;;;;-0.91;65.02;100068.03;4865352;29;20128;-81
2022/12/21 11:16:44;;;;;;;17.38;6.72;;;;;;;-0.79;65.50;100087.25;4851402;29;20072;-79
2022/12/21 11:19:13;;;;;;;10.88;5.85;;;;;;;-1.00;64.76;100060.00;4850854;29;20053;-78
2022/12/21 11:21:57;;;;;;;12.38;5.53;;;;;;;-0.76;65.01;100095.03;4849103;29;20042;-81
2022/12/21 11:24:56;;;;;;;14.43;6.72;;;;;;;-0.69;65.09;100080.84;4841803;29;20084;-82
2022/12/21 11:27:31;;;;;;;10.70;5.78;;;;;;;-0.90;64.70;100068.94;4834996;29;20418;-81
2022/12/21 11:30:01;;;;;;;10.70;6.03;;;;;;;-1.04;64.45;100062.34;4842890;29;20046;-79
2022/12/21 11:32:30;;;;;;;13.45;7.03;;;;;;;-1.19;64.55;100052.34;4842108;29;20098;-84
2022/12/21 11:35:00;;;;;;;14.57;6.57;;;;;;;-1.05;64.97;100092.13;4842301;29;20152;-78
2022/12/21 11:37:38;;;;;;;13.43;6.70;;;;;;;-0.96;65.29;100081.44;4828475;29;20074;-79
2022/12/21 11:40:20;;;;;;;12.65;6.13;;;;;;;-1.03;65.37;100084.53;4842762;29;20038;-78
2022/12/21 11:43:01;;;;;;;12.05;6.38;;;;;;;-1.09;64.90;100077.47;4842209;29;20045;-84
2022/12/21 11:45:53;;;;;;;12.18;6.47;;;;;;;-1.15;64.75;100077.22;4841612;29;20049;-81
2022/12/21 11:48:48;;;;;;;;;;;;;;;-1.18;65.46;100079.63;4843395;29;20042;-80